Lake Buena Vista, Florida
Current Conditions -  °F | °C
As of 7:50 PM on Friday 24 Oct 2014 (Local Time) from KISM Reporting Station
Clear Clear  
Wind Chill: 22°   Ceiling: Unl
Heat Index: 22°   Visibility: 10mi
Dew Point: 14°   Wind: 7mph
Humidity: 60%   Direction: 60°ENE
Pressure: 29.94"   Gusts: NA
Location:  28.37°N, 81.52°W
Report Text: KISM 242350Z 06006KT 10SM SKC 22/14 A2994
Loading
Personal Weather Stations






























Interactive Weather Map
Tropical Storm Tracking
New forecast layout! Learn more

10-Day Weather Forecast

Advertisements
Track Severe Weather on mobile